sensor_id;sensor_type;location;lat;lon;timestamp;P1;durP1;ratioP1;P2;durP2;ratioP2
7263;SDS011;3673;52.480;13.348;2022-10-16T00:00:39;2.70;;;2.05;;
7263;SDS011;3673;52.480;13.348;2022-10-16T00:03:08;3.90;;;1.75;;
7263;SDS011;3673;52.480;13.348;2022-10-16T00:05:39;5.10;;;1.55;;
7263;SDS011;3673;52.480;13.348;2022-10-16T00:08:08;1.95;;;1.67;;
7263;SDS011;3673;52.480;13.348;2022-10-16T00:10:36;1.90;;;1.77;;
7263;SDS011;3673;52.480;13.348;2022-10-16T00:13:05;1.70;;;1.60;;
7263;SDS011;3673;52.480;13.348;2022-10-16T00:15:33;2.00;;;1.70;;
7263;SDS011;3673;52.480;13.348;2022-10-16T00:18:01;2.13;;;1.52;;
7263;SDS011;3673;52.480;13.348;2022-10-16T00:20:28;1.83;;;1.70;;
7263;SDS011;3673;52.480;13.348;2022-10-16T00:22:56;3.88;;;2.10;;
7263;SDS011;3673;52.480;13.348;2022-10-16T00:25:23;4.03;;;1.55;;
7263;SDS011;3673;52.480;13.348;2022-10-16T00:27:50;2.20;;;1.70;;
7263;SDS011;3673;52.480;13.348;2022-10-16T00:30:18;3.63;;;1.65;;
7263;SDS011;3673;52.480;13.348;2022-10-16T00:32:45;2.40;;;1.90;;
7263;SDS011;3673;52.480;13.348;2022-10-16T00:35:11;2.75;;;1.60;;
7263;SDS011;3673;52.480;13.348;2022-10-16T00:37:38;3.78;;;1.60;;
7263;SDS011;3673;52.480;13.348;2022-10-16T00:40:05;1.50;;;1.40;;
7263;SDS011;3673;52.480;13.348;2022-10-16T00:42:33;2.25;;;1.60;;
7263;SDS011;3673;52.480;13.348;2022-10-16T00:45:00;1.63;;;1.42;;
7263;SDS011;3673;52.480;13.348;2022-10-16T00:47:29;5.40;;;1.80;;
7263;SDS011;3673;52.480;13.348;2022-10-16T00:49:59;1.77;;;1.40;;
7263;SDS011;3673;52.480;13.348;2022-10-16T00:52:32;1.90;;;1.70;;
7263;SDS011;3673;52.480;13.348;2022-10-16T00:54:59;2.83;;;1.50;;
7263;SDS011;3673;52.480;13.348;2022-10-16T00:57:28;3.05;;;1.75;;
7263;SDS011;3673;52.480;13.348;2022-10-16T00:59:55;3.05;;;1.55;;
7263;SDS011;3673;52.480;13.348;2022-10-16T01:02:23;1.92;;;1.70;;
7263;SDS011;3673;52.480;13.348;2022-10-16T01:04:52;2.88;;;1.60;;
7263;SDS011;3673;52.480;13.348;2022-10-16T01:07:24;2.25;;;1.60;;
7263;SDS011;3673;52.480;13.348;2022-10-16T01:10:06;1.67;;;1.52;;
7263;SDS011;3673;52.480;13.348;2022-10-16T01:12:41;1.90;;;1.70;;
7263;SDS011;3673;52.480;13.348;2022-10-16T01:15:14;1.88;;;1.60;;
7263;SDS011;3673;52.480;13.348;2022-10-16T01:20:24;2.78;;;1.50;;
7263;SDS011;3673;52.480;13.348;2022-10-16T01:22:58;3.08;;;1.77;;
7263;SDS011;3673;52.480;13.348;2022-10-16T01:25:49;1.50;;;1.40;;
7263;SDS011;3673;52.480;13.348;2022-10-16T01:28:34;2.25;;;1.65;;
7263;SDS011;3673;52.480;13.348;2022-10-16T01:31:05;1.73;;;1.40;;
7263;SDS011;3673;52.480;13.348;2022-10-16T01:33:35;1.85;;;1.65;;
7263;SDS011;3673;52.480;13.348;2022-10-16T01:36:07;3.20;;;1.73;;
7263;SDS011;3673;52.480;13.348;2022-10-16T01:38:40;4.43;;;1.88;;
7263;SDS011;3673;52.480;13.348;2022-10-16T01:41:09;1.83;;;1.60;;
7263;SDS011;3673;52.480;13.348;2022-10-16T01:43:42;3.78;;;1.70;;
7263;SDS011;3673;52.480;13.348;2022-10-16T01:46:15;2.45;;;1.73;;
7263;SDS011;3673;52.480;13.348;2022-10-16T01:48:46;1.65;;;1.48;;
7263;SDS011;3673;52.480;13.348;2022-10-16T01:51:15;3.78;;;1.55;;
7263;SDS011;3673;52.480;13.348;2022-10-16T01:53:45;4.28;;;1.67;;
7263;SDS011;3673;52.480;13.348;2022-10-16T01:56:16;3.80;;;1.80;;
7263;SDS011;3673;52.480;13.348;2022-10-16T01:58:47;2.40;;;1.50;;
7263;SDS011;3673;52.480;13.348;2022-10-16T02:01:19;2.13;;;1.92;;
7263;SDS011;3673;52.480;13.348;2022-10-16T02:03:49;2.45;;;1.70;;
7263;SDS011;3673;52.480;13.348;2022-10-16T02:06:23;2.10;;;1.45;;
7263;SDS011;3673;52.480;13.348;2022-10-16T02:08:50;1.67;;;1.42;;
7263;SDS011;3673;52.480;13.348;2022-10-16T02:11:17;1.58;;;1.33;;
7263;SDS011;3673;52.480;13.348;2022-10-16T02:13:45;1.50;;;1.40;;
7263;SDS011;3673;52.480;13.348;2022-10-16T02:16:17;3.08;;;1.52;;
7263;SDS011;3673;52.480;13.348;2022-10-16T02:18:43;1.48;;;1.38;;
7263;SDS011;3673;52.480;13.348;2022-10-16T02:21:12;1.98;;;1.75;;
7263;SDS011;3673;52.480;13.348;2022-10-16T02:23:45;1.85;;;1.75;;
7263;SDS011;3673;52.480;13.348;2022-10-16T02:26:19;2.00;;;1.80;;
7263;SDS011;3673;52.480;13.348;2022-10-16T02:28:54;1.50;;;1.40;;
7263;SDS011;3673;52.480;13.348;2022-10-16T02:31:27;1.67;;;1.58;;
7263;SDS011;3673;52.480;13.348;2022-10-16T02:33:59;3.33;;;1.55;;
7263;SDS011;3673;52.480;13.348;2022-10-16T02:36:27;2.85;;;1.50;;
7263;SDS011;3673;52.480;13.348;2022-10-16T02:38:55;2.10;;;1.67;;
7263;SDS011;3673;52.480;13.348;2022-10-16T02:41:22;1.95;;;1.50;;
7263;SDS011;3673;52.480;13.348;2022-10-16T02:43:50;3.72;;;1.95;;
7263;SDS011;3673;52.480;13.348;2022-10-16T02:46:18;3.45;;;1.70;;
7263;SDS011;3673;52.480;13.348;2022-10-16T02:48:45;6.55;;;1.77;;
7263;SDS011;3673;52.480;13.348;2022-10-16T02:51:12;3.60;;;1.60;;
7263;SDS011;3673;52.480;13.348;2022-10-16T02:53:39;2.55;;;1.70;;
7263;SDS011;3673;52.480;13.348;2022-10-16T02:56:06;1.77;;;1.30;;
7263;SDS011;3673;52.480;13.348;2022-10-16T02:58:33;2.55;;;2.00;;
7263;SDS011;3673;52.480;13.348;2022-10-16T03:01:00;2.80;;;1.65;;
7263;SDS011;3673;52.480;13.348;2022-10-16T03:03:29;2.55;;;2.35;;
7263;SDS011;3673;52.480;13.348;2022-10-16T03:05:55;2.95;;;1.95;;
7263;SDS011;3673;52.480;13.348;2022-10-16T03:08:23;1.45;;;1.35;;
7263;SDS011;3673;52.480;13.348;2022-10-16T03:10:50;4.65;;;1.88;;
7263;SDS011;3673;52.480;13.348;2022-10-16T03:13:17;2.28;;;2.05;;
7263;SDS011;3673;52.480;13.348;2022-10-16T03:15:46;1.95;;;1.65;;
7263;SDS011;3673;52.480;13.348;2022-10-16T03:18:13;2.78;;;1.92;;
7263;SDS011;3673;52.480;13.348;2022-10-16T03:20:41;2.40;;;1.42;;
7263;SDS011;3673;52.480;13.348;2022-10-16T03:23:09;1.90;;;1.58;;
7263;SDS011;3673;52.480;13.348;2022-10-16T03:25:36;1.80;;;1.70;;
7263;SDS011;3673;52.480;13.348;2022-10-16T03:28:03;2.53;;;2.33;;
7263;SDS011;3673;52.480;13.348;2022-10-16T03:30:30;1.88;;;1.67;;
7263;SDS011;3673;52.480;13.348;2022-10-16T03:32:57;3.45;;;1.70;;
7263;SDS011;3673;52.480;13.348;2022-10-16T03:35:24;2.15;;;1.42;;
7263;SDS011;3673;52.480;13.348;2022-10-16T03:37:52;1.95;;;1.63;;
7263;SDS011;3673;52.480;13.348;2022-10-16T03:40:19;2.25;;;1.70;;
7263;SDS011;3673;52.480;13.348;2022-10-16T03:42:46;2.40;;;1.80;;
7263;SDS011;3673;52.480;13.348;2022-10-16T03:45:16;3.15;;;2.08;;
7263;SDS011;3673;52.480;13.348;2022-10-16T03:47:42;2.83;;;1.88;;
7263;SDS011;3673;52.480;13.348;2022-10-16T03:50:09;2.08;;;1.88;;
7263;SDS011;3673;52.480;13.348;2022-10-16T03:52:36;3.00;;;2.17;;
7263;SDS011;3673;52.480;13.348;2022-10-16T03:55:04;2.15;;;1.95;;
7263;SDS011;3673;52.480;13.348;2022-10-16T03:57:32;1.95;;;1.83;;
7263;SDS011;3673;52.480;13.348;2022-10-16T03:59:59;2.92;;;1.75;;
7263;SDS011;3673;52.480;13.348;2022-10-16T04:02:26;1.83;;;1.60;;
7263;SDS011;3673;52.480;13.348;2022-10-16T04:04:52;2.55;;;1.83;;
7263;SDS011;3673;52.480;13.348;2022-10-16T04:07:19;4.25;;;1.75;;
7263;SDS011;3673;52.480;13.348;2022-10-16T04:09:46;2.03;;;1.70;;
7263;SDS011;3673;52.480;13.348;2022-10-16T04:12:14;1.80;;;1.70;;
7263;SDS011;3673;52.480;13.348;2022-10-16T04:14:41;2.17;;;1.73;;
7263;SDS011;3673;52.480;13.348;2022-10-16T04:17:08;1.80;;;1.30;;
7263;SDS011;3673;52.480;13.348;2022-10-16T04:19:34;4.63;;;1.60;;
7263;SDS011;3673;52.480;13.348;2022-10-16T04:22:02;1.75;;;1.60;;
7263;SDS011;3673;52.480;13.348;2022-10-16T04:24:28;2.42;;;1.60;;
7263;SDS011;3673;52.480;13.348;2022-10-16T04:26:55;2.40;;;1.90;;
7263;SDS011;3673;52.480;13.348;2022-10-16T04:29:23;4.65;;;1.50;;
7263;SDS011;3673;52.480;13.348;2022-10-16T04:31:50;2.50;;;1.70;;
7263;SDS011;3673;52.480;13.348;2022-10-16T04:34:17;1.98;;;1.77;;
7263;SDS011;3673;52.480;13.348;2022-10-16T04:36:43;2.10;;;1.77;;
7263;SDS011;3673;52.480;13.348;2022-10-16T04:39:13;3.88;;;1.83;;
7263;SDS011;3673;52.480;13.348;2022-10-16T04:41:39;4.70;;;2.08;;
7263;SDS011;3673;52.480;13.348;2022-10-16T04:44:06;4.10;;;1.75;;
7263;SDS011;3673;52.480;13.348;2022-10-16T04:46:34;2.70;;;1.73;;
7263;SDS011;3673;52.480;13.348;2022-10-16T04:49:01;3.15;;;1.83;;
7263;SDS011;3673;52.480;13.348;2022-10-16T04:51:28;3.45;;;2.22;;
7263;SDS011;3673;52.480;13.348;2022-10-16T04:53:54;4.28;;;2.13;;
7263;SDS011;3673;52.480;13.348;2022-10-16T04:56:21;3.10;;;2.13;;
7263;SDS011;3673;52.480;13.348;2022-10-16T04:58:49;3.15;;;2.85;;
7263;SDS011;3673;52.480;13.348;2022-10-16T05:01:15;2.20;;;1.92;;
7263;SDS011;3673;52.480;13.348;2022-10-16T05:03:44;4.35;;;2.20;;
7263;SDS011;3673;52.480;13.348;2022-10-16T05:06:10;2.67;;;2.22;;
7263;SDS011;3673;52.480;13.348;2022-10-16T05:08:37;3.03;;;2.20;;
7263;SDS011;3673;52.480;13.348;2022-10-16T05:11:04;2.55;;;2.35;;
7263;SDS011;3673;52.480;13.348;2022-10-16T05:13:30;3.03;;;2.15;;
7263;SDS011;3673;52.480;13.348;2022-10-16T05:15:57;3.25;;;2.40;;
7263;SDS011;3673;52.480;13.348;2022-10-16T05:18:24;3.45;;;2.45;;
7263;SDS011;3673;52.480;13.348;2022-10-16T05:20:52;2.45;;;2.20;;
7263;SDS011;3673;52.480;13.348;2022-10-16T05:23:19;2.53;;;1.95;;
7263;SDS011;3673;52.480;13.348;2022-10-16T05:25:51;2.15;;;1.80;;
7263;SDS011;3673;52.480;13.348;2022-10-16T05:28:20;4.22;;;2.20;;
7263;SDS011;3673;52.480;13.348;2022-10-16T05:30:46;3.15;;;2.13;;
7263;SDS011;3673;52.480;13.348;2022-10-16T05:33:13;4.18;;;2.15;;
7263;SDS011;3673;52.480;13.348;2022-10-16T05:35:40;2.22;;;2.00;;
7263;SDS011;3673;52.480;13.348;2022-10-16T05:38:08;3.33;;;2.03;;
7263;SDS011;3673;52.480;13.348;2022-10-16T05:40:35;2.63;;;2.22;;
7263;SDS011;3673;52.480;13.348;2022-10-16T05:43:02;6.22;;;2.10;;
7263;SDS011;3673;52.480;13.348;2022-10-16T05:45:29;2.40;;;2.20;;
7263;SDS011;3673;52.480;13.348;2022-10-16T05:47:56;2.35;;;2.00;;
7263;SDS011;3673;52.480;13.348;2022-10-16T05:50:23;3.63;;;2.70;;
7263;SDS011;3673;52.480;13.348;2022-10-16T05:52:50;2.60;;;2.40;;
7263;SDS011;3673;52.480;13.348;2022-10-16T05:55:18;3.10;;;2.58;;
7263;SDS011;3673;52.480;13.348;2022-10-16T05:57:44;7.53;;;2.40;;
7263;SDS011;3673;52.480;13.348;2022-10-16T06:00:11;3.10;;;2.80;;
7263;SDS011;3673;52.480;13.348;2022-10-16T06:02:38;3.95;;;2.33;;
7263;SDS011;3673;52.480;13.348;2022-10-16T06:05:05;3.13;;;2.45;;
7263;SDS011;3673;52.480;13.348;2022-10-16T06:07:33;3.70;;;2.00;;
7263;SDS011;3673;52.480;13.348;2022-10-16T06:10:01;4.22;;;2.40;;
7263;SDS011;3673;52.480;13.348;2022-10-16T06:12:30;3.60;;;2.40;;
7263;SDS011;3673;52.480;13.348;2022-10-16T06:14:57;3.85;;;2.38;;
7263;SDS011;3673;52.480;13.348;2022-10-16T06:17:24;3.75;;;3.08;;
7263;SDS011;3673;52.480;13.348;2022-10-16T06:19:50;4.15;;;2.65;;
7263;SDS011;3673;52.480;13.348;2022-10-16T06:22:17;4.57;;;2.47;;
7263;SDS011;3673;52.480;13.348;2022-10-16T06:24:44;8.00;;;5.50;;
7263;SDS011;3673;52.480;13.348;2022-10-16T06:27:11;10.48;;;6.35;;
7263;SDS011;3673;52.480;13.348;2022-10-16T06:29:39;5.13;;;3.38;;
7263;SDS011;3673;52.480;13.348;2022-10-16T06:32:07;2.53;;;2.33;;
7263;SDS011;3673;52.480;13.348;2022-10-16T06:34:34;3.03;;;1.92;;
7263;SDS011;3673;52.480;13.348;2022-10-16T06:37:01;2.10;;;1.67;;
7263;SDS011;3673;52.480;13.348;2022-10-16T06:39:28;4.55;;;1.90;;
7263;SDS011;3673;52.480;13.348;2022-10-16T06:41:55;3.20;;;2.30;;
7263;SDS011;3673;52.480;13.348;2022-10-16T06:44:21;2.42;;;1.77;;
7263;SDS011;3673;52.480;13.348;2022-10-16T06:46:49;4.53;;;1.80;;
7263;SDS011;3673;52.480;13.348;2022-10-16T06:49:18;2.60;;;1.60;;
7263;SDS011;3673;52.480;13.348;2022-10-16T06:51:47;2.50;;;2.30;;
7263;SDS011;3673;52.480;13.348;2022-10-16T06:54:14;3.28;;;1.73;;
7263;SDS011;3673;52.480;13.348;2022-10-16T06:56:41;3.33;;;1.80;;
7263;SDS011;3673;52.480;13.348;2022-10-16T06:59:08;3.65;;;2.28;;
7263;SDS011;3673;52.480;13.348;2022-10-16T07:01:35;2.80;;;1.80;;
7263;SDS011;3673;52.480;13.348;2022-10-16T07:04:03;3.20;;;1.92;;
7263;SDS011;3673;52.480;13.348;2022-10-16T07:06:30;2.55;;;1.77;;
7263;SDS011;3673;52.480;13.348;2022-10-16T07:09:00;1.90;;;1.73;;
7263;SDS011;3673;52.480;13.348;2022-10-16T07:11:30;2.58;;;1.90;;
7263;SDS011;3673;52.480;13.348;2022-10-16T07:13:58;1.83;;;1.70;;
7263;SDS011;3673;52.480;13.348;2022-10-16T07:16:26;2.72;;;2.10;;
7263;SDS011;3673;52.480;13.348;2022-10-16T07:18:55;2.67;;;1.60;;
7263;SDS011;3673;52.480;13.348;2022-10-16T07:21:26;2.10;;;1.90;;
7263;SDS011;3673;52.480;13.348;2022-10-16T07:23:55;2.63;;;1.33;;
7263;SDS011;3673;52.480;13.348;2022-10-16T07:26:24;2.38;;;1.95;;
7263;SDS011;3673;52.480;13.348;2022-10-16T07:28:51;4.07;;;2.30;;
7263;SDS011;3673;52.480;13.348;2022-10-16T07:31:21;5.05;;;2.15;;
7263;SDS011;3673;52.480;13.348;2022-10-16T07:33:49;2.22;;;1.70;;
7263;SDS011;3673;52.480;13.348;2022-10-16T07:36:17;2.38;;;1.63;;
7263;SDS011;3673;52.480;13.348;2022-10-16T07:38:47;4.03;;;2.03;;
7263;SDS011;3673;52.480;13.348;2022-10-16T07:41:14;4.22;;;2.40;;
7263;SDS011;3673;52.480;13.348;2022-10-16T07:43:45;4.60;;;2.05;;
7263;SDS011;3673;52.480;13.348;2022-10-16T07:46:14;2.53;;;1.73;;
7263;SDS011;3673;52.480;13.348;2022-10-16T07:48:41;5.53;;;2.22;;
7263;SDS011;3673;52.480;13.348;2022-10-16T07:51:10;4.63;;;2.30;;
7263;SDS011;3673;52.480;13.348;2022-10-16T07:53:37;2.78;;;2.03;;
7263;SDS011;3673;52.480;13.348;2022-10-16T07:56:06;5.47;;;2.30;;
7263;SDS011;3673;52.480;13.348;2022-10-16T07:58:34;4.55;;;3.05;;
7263;SDS011;3673;52.480;13.348;2022-10-16T08:01:03;4.22;;;2.70;;
7263;SDS011;3673;52.480;13.348;2022-10-16T08:03:31;2.63;;;2.13;;
7263;SDS011;3673;52.480;13.348;2022-10-16T08:05:58;4.00;;;2.00;;
7263;SDS011;3673;52.480;13.348;2022-10-16T08:08:26;2.08;;;1.55;;
7263;SDS011;3673;52.480;13.348;2022-10-16T08:10:53;2.72;;;1.58;;
7263;SDS011;3673;52.480;13.348;2022-10-16T08:13:21;2.30;;;1.58;;
7263;SDS011;3673;52.480;13.348;2022-10-16T08:15:48;4.15;;;1.60;;
7263;SDS011;3673;52.480;13.348;2022-10-16T08:18:15;2.83;;;1.50;;
7263;SDS011;3673;52.480;13.348;2022-10-16T08:20:42;3.20;;;1.42;;
7263;SDS011;3673;52.480;13.348;2022-10-16T08:23:09;2.20;;;1.58;;
7263;SDS011;3673;52.480;13.348;2022-10-16T08:25:38;2.63;;;1.65;;
7263;SDS011;3673;52.480;13.348;2022-10-16T08:28:06;3.22;;;1.52;;
7263;SDS011;3673;52.480;13.348;2022-10-16T08:30:36;1.80;;;1.42;;
7263;SDS011;3673;52.480;13.348;2022-10-16T08:33:03;8.32;;;1.60;;
7263;SDS011;3673;52.480;13.348;2022-10-16T08:35:31;2.42;;;1.40;;
7263;SDS011;3673;52.480;13.348;2022-10-16T08:37:58;2.70;;;2.15;;
7263;SDS011;3673;52.480;13.348;2022-10-16T08:40:25;1.60;;;1.50;;
7263;SDS011;3673;52.480;13.348;2022-10-16T08:43:03;1.95;;;1.40;;
7263;SDS011;3673;52.480;13.348;2022-10-16T08:45:51;2.15;;;1.35;;
7263;SDS011;3673;52.480;13.348;2022-10-16T08:48:39;2.03;;;1.27;;
7263;SDS011;3673;52.480;13.348;2022-10-16T08:51:13;3.45;;;1.50;;
7263;SDS011;3673;52.480;13.348;2022-10-16T08:53:46;4.07;;;1.25;;
7263;SDS011;3673;52.480;13.348;2022-10-16T08:56:18;4.45;;;2.22;;
7263;SDS011;3673;52.480;13.348;2022-10-16T08:58:45;1.55;;;1.33;;
7263;SDS011;3673;52.480;13.348;2022-10-16T09:01:15;3.60;;;1.80;;
7263;SDS011;3673;52.480;13.348;2022-10-16T09:03:54;4.53;;;2.40;;
7263;SDS011;3673;52.480;13.348;2022-10-16T09:06:40;2.03;;;1.45;;
7263;SDS011;3673;52.480;13.348;2022-10-16T09:09:28;2.35;;;1.60;;
7263;SDS011;3673;52.480;13.348;2022-10-16T09:12:21;2.05;;;1.50;;
7263;SDS011;3673;52.480;13.348;2022-10-16T09:14:57;2.83;;;1.27;;
7263;SDS011;3673;52.480;13.348;2022-10-16T09:17:37;4.72;;;1.50;;
7263;SDS011;3673;52.480;13.348;2022-10-16T09:20:16;1.30;;;1.10;;
7263;SDS011;3673;52.480;13.348;2022-10-16T09:23:00;1.33;;;1.20;;
7263;SDS011;3673;52.480;13.348;2022-10-16T09:25:42;2.50;;;1.25;;
7263;SDS011;3673;52.480;13.348;2022-10-16T09:28:12;1.95;;;1.25;;
7263;SDS011;3673;52.480;13.348;2022-10-16T09:30:41;1.58;;;1.13;;
7263;SDS011;3673;52.480;13.348;2022-10-16T09:33:11;2.15;;;1.20;;
7263;SDS011;3673;52.480;13.348;2022-10-16T09:35:40;1.45;;;0.95;;
7263;SDS011;3673;52.480;13.348;2022-10-16T09:38:20;2.88;;;1.10;;
7263;SDS011;3673;52.480;13.348;2022-10-16T09:40:49;2.92;;;1.60;;
7263;SDS011;3673;52.480;13.348;2022-10-16T09:43:20;4.07;;;1.30;;
7263;SDS011;3673;52.480;13.348;2022-10-16T09:45:56;2.00;;;1.40;;
7263;SDS011;3673;52.480;13.348;2022-10-16T09:48:26;3.30;;;1.10;;
7263;SDS011;3673;52.480;13.348;2022-10-16T09:51:00;3.05;;;1.17;;
7263;SDS011;3673;52.480;13.348;2022-10-16T09:53:38;2.20;;;1.20;;
7263;SDS011;3673;52.480;13.348;2022-10-16T09:56:09;2.65;;;1.38;;
7263;SDS011;3673;52.480;13.348;2022-10-16T09:58:41;2.25;;;1.35;;
7263;SDS011;3673;52.480;13.348;2022-10-16T10:01:12;1.17;;;0.95;;
7263;SDS011;3673;52.480;13.348;2022-10-16T10:03:43;1.55;;;1.20;;
7263;SDS011;3673;52.480;13.348;2022-10-16T10:06:16;1.20;;;1.02;;
7263;SDS011;3673;52.480;13.348;2022-10-16T10:08:55;1.80;;;1.30;;
7263;SDS011;3673;52.480;13.348;2022-10-16T10:11:40;3.85;;;1.20;;
7263;SDS011;3673;52.480;13.348;2022-10-16T10:14:16;1.30;;;1.20;;
7263;SDS011;3673;52.480;13.348;2022-10-16T10:17:06;1.25;;;1.10;;
7263;SDS011;3673;52.480;13.348;2022-10-16T10:19:39;1.70;;;1.27;;
7263;SDS011;3673;52.480;13.348;2022-10-16T10:27:48;2.10;;;1.20;;
7263;SDS011;3673;52.480;13.348;2022-10-16T10:30:44;1.63;;;1.20;;
7263;SDS011;3673;52.480;13.348;2022-10-16T10:33:25;2.10;;;1.10;;
7263;SDS011;3673;52.480;13.348;2022-10-16T10:36:04;1.13;;;0.70;;
7263;SDS011;3673;52.480;13.348;2022-10-16T10:38:48;1.60;;;0.93;;
7263;SDS011;3673;52.480;13.348;2022-10-16T10:41:22;3.03;;;0.90;;
7263;SDS011;3673;52.480;13.348;2022-10-16T10:47:31;1.02;;;0.93;;
7263;SDS011;3673;52.480;13.348;2022-10-16T10:50:12;3.60;;;1.10;;
7263;SDS011;3673;52.480;13.348;2022-10-16T10:52:53;3.17;;;1.00;;
7263;SDS011;3673;52.480;13.348;2022-10-16T10:55:31;1.58;;;1.00;;
7263;SDS011;3673;52.480;13.348;2022-10-16T10:58:18;1.83;;;0.90;;
7263;SDS011;3673;52.480;13.348;2022-10-16T11:01:04;1.27;;;0.90;;
7263;SDS011;3673;52.480;13.348;2022-10-16T11:03:41;1.10;;;0.93;;
7263;SDS011;3673;52.480;13.348;2022-10-16T11:06:25;1.30;;;1.02;;
7263;SDS011;3673;52.480;13.348;2022-10-16T11:08:59;2.33;;;1.10;;
7263;SDS011;3673;52.480;13.348;2022-10-16T11:11:37;4.72;;;1.40;;
7263;SDS011;3673;52.480;13.348;2022-10-16T11:14:10;2.00;;;0.80;;
7263;SDS011;3673;52.480;13.348;2022-10-16T11:16:43;1.95;;;0.70;;
7263;SDS011;3673;52.480;13.348;2022-10-16T11:19:20;2.08;;;1.00;;
7263;SDS011;3673;52.480;13.348;2022-10-16T11:22:00;1.90;;;0.90;;
7263;SDS011;3673;52.480;13.348;2022-10-16T11:24:37;2.95;;;1.67;;
7263;SDS011;3673;52.480;13.348;2022-10-16T11:27:12;2.95;;;1.08;;
7263;SDS011;3673;52.480;13.348;2022-10-16T11:29:44;3.60;;;1.08;;
7263;SDS011;3673;52.480;13.348;2022-10-16T11:32:21;1.60;;;0.82;;
7263;SDS011;3673;52.480;13.348;2022-10-16T11:34:53;6.30;;;3.83;;
7263;SDS011;3673;52.480;13.348;2022-10-16T11:37:29;1.33;;;0.88;;
7263;SDS011;3673;52.480;13.348;2022-10-16T11:40:05;1.35;;;0.90;;
7263;SDS011;3673;52.480;13.348;2022-10-16T11:42:48;2.65;;;0.85;;
7263;SDS011;3673;52.480;13.348;2022-10-16T11:45:25;1.13;;;0.90;;
7263;SDS011;3673;52.480;13.348;2022-10-16T11:48:00;1.25;;;0.88;;
7263;SDS011;3673;52.480;13.348;2022-10-16T11:50:33;1.13;;;0.90;;
7263;SDS011;3673;52.480;13.348;2022-10-16T11:53:08;1.73;;;0.88;;
7263;SDS011;3673;52.480;13.348;2022-10-16T11:55:48;1.80;;;1.00;;
7263;SDS011;3673;52.480;13.348;2022-10-16T11:58:16;1.75;;;0.75;;
7263;SDS011;3673;52.480;13.348;2022-10-16T12:00:53;2.58;;;0.80;;
7263;SDS011;3673;52.480;13.348;2022-10-16T12:03:38;2.70;;;0.63;;
7263;SDS011;3673;52.480;13.348;2022-10-16T12:06:19;2.70;;;0.65;;
7263;SDS011;3673;52.480;13.348;2022-10-16T12:08:56;1.73;;;0.90;;
7263;SDS011;3673;52.480;13.348;2022-10-16T12:11:34;0.85;;;0.60;;
7263;SDS011;3673;52.480;13.348;2022-10-16T12:14:04;2.22;;;0.70;;
7263;SDS011;3673;52.480;13.348;2022-10-16T12:17:02;1.70;;;0.70;;
7263;SDS011;3673;52.480;13.348;2022-10-16T12:22:24;2.97;;;0.85;;
7263;SDS011;3673;52.480;13.348;2022-10-16T12:24:56;1.42;;;0.90;;
7263;SDS011;3673;52.480;13.348;2022-10-16T12:27:25;3.03;;;1.83;;
7263;SDS011;3673;52.480;13.348;2022-10-16T12:29:56;1.33;;;0.50;;
7263;SDS011;3673;52.480;13.348;2022-10-16T12:32:29;2.55;;;0.65;;
7263;SDS011;3673;52.480;13.348;2022-10-16T12:34:59;0.68;;;0.60;;
7263;SDS011;3673;52.480;13.348;2022-10-16T12:37:28;3.75;;;0.90;;
7263;SDS011;3673;52.480;13.348;2022-10-16T12:40:00;1.55;;;1.02;;
7263;SDS011;3673;52.480;13.348;2022-10-16T12:42:40;1.52;;;1.27;;
7263;SDS011;3673;52.480;13.348;2022-10-16T12:45:22;2.15;;;1.00;;
7263;SDS011;3673;52.480;13.348;2022-10-16T12:47:56;1.40;;;1.02;;
7263;SDS011;3673;52.480;13.348;2022-10-16T12:50:25;0.98;;;0.63;;
7263;SDS011;3673;52.480;13.348;2022-10-16T12:52:56;0.90;;;0.60;;
7263;SDS011;3673;52.480;13.348;2022-10-16T12:55:24;1.77;;;0.80;;
7263;SDS011;3673;52.480;13.348;2022-10-16T12:57:59;2.38;;;0.70;;
7263;SDS011;3673;52.480;13.348;2022-10-16T13:00:37;1.15;;;0.82;;
7263;SDS011;3673;52.480;13.348;2022-10-16T13:03:22;0.60;;;0.60;;
7263;SDS011;3673;52.480;13.348;2022-10-16T13:06:20;0.77;;;0.50;;
7263;SDS011;3673;52.480;13.348;2022-10-16T13:09:02;2.72;;;0.82;;
7263;SDS011;3673;52.480;13.348;2022-10-16T13:11:52;5.38;;;2.13;;
7263;SDS011;3673;52.480;13.348;2022-10-16T13:14:35;3.58;;;0.82;;
7263;SDS011;3673;52.480;13.348;2022-10-16T13:17:37;1.00;;;0.70;;
7263;SDS011;3673;52.480;13.348;2022-10-16T13:20:16;0.60;;;0.60;;
7263;SDS011;3673;52.480;13.348;2022-10-16T13:22:51;3.10;;;0.60;;
7263;SDS011;3673;52.480;13.348;2022-10-16T13:25:31;2.50;;;0.65;;
7263;SDS011;3673;52.480;13.348;2022-10-16T13:28:11;0.50;;;0.40;;
7263;SDS011;3673;52.480;13.348;2022-10-16T13:30:40;1.80;;;1.00;;
7263;SDS011;3673;52.480;13.348;2022-10-16T13:33:13;1.50;;;0.93;;
7263;SDS011;3673;52.480;13.348;2022-10-16T13:35:48;0.45;;;0.45;;
7263;SDS011;3673;52.480;13.348;2022-10-16T13:38:17;0.98;;;0.43;;
7263;SDS011;3673;52.480;13.348;2022-10-16T13:40:50;1.17;;;0.65;;
7263;SDS011;3673;52.480;13.348;2022-10-16T13:43:20;1.95;;;0.80;;
7263;SDS011;3673;52.480;13.348;2022-10-16T13:45:56;2.67;;;0.82;;
7263;SDS011;3673;52.480;13.348;2022-10-16T13:48:26;2.40;;;1.40;;
7263;SDS011;3673;52.480;13.348;2022-10-16T13:51:01;2.97;;;1.92;;
7263;SDS011;3673;52.480;13.348;2022-10-16T13:53:33;2.08;;;1.58;;
7263;SDS011;3673;52.480;13.348;2022-10-16T13:56:04;0.70;;;0.70;;
7263;SDS011;3673;52.480;13.348;2022-10-16T13:58:34;1.17;;;0.77;;
7263;SDS011;3673;52.480;13.348;2022-10-16T14:01:02;3.97;;;1.10;;
7263;SDS011;3673;52.480;13.348;2022-10-16T14:03:32;1.05;;;0.85;;
7263;SDS011;3673;52.480;13.348;2022-10-16T14:06:01;1.33;;;0.60;;
7263;SDS011;3673;52.480;13.348;2022-10-16T14:08:33;2.60;;;1.05;;
7263;SDS011;3673;52.480;13.348;2022-10-16T14:11:00;1.45;;;0.90;;
7263;SDS011;3673;52.480;13.348;2022-10-16T14:13:29;2.38;;;1.67;;
7263;SDS011;3673;52.480;13.348;2022-10-16T14:16:02;2.55;;;1.92;;
7263;SDS011;3673;52.480;13.348;2022-10-16T14:18:35;3.70;;;2.97;;
7263;SDS011;3673;52.480;13.348;2022-10-16T14:21:05;2.00;;;1.55;;
7263;SDS011;3673;52.480;13.348;2022-10-16T14:23:38;2.88;;;1.83;;
7263;SDS011;3673;52.480;13.348;2022-10-16T14:26:14;1.40;;;0.60;;
7263;SDS011;3673;52.480;13.348;2022-10-16T14:28:44;3.15;;;1.00;;
7263;SDS011;3673;52.480;13.348;2022-10-16T14:31:23;1.85;;;0.75;;
7263;SDS011;3673;52.480;13.348;2022-10-16T14:33:54;3.35;;;0.98;;
7263;SDS011;3673;52.480;13.348;2022-10-16T14:36:21;0.77;;;0.77;;
7263;SDS011;3673;52.480;13.348;2022-10-16T14:38:52;5.60;;;1.00;;
7263;SDS011;3673;52.480;13.348;2022-10-16T14:41:28;1.77;;;0.80;;
7263;SDS011;3673;52.480;13.348;2022-10-16T14:43:57;2.67;;;1.20;;
7263;SDS011;3673;52.480;13.348;2022-10-16T14:46:31;1.48;;;1.20;;
7263;SDS011;3673;52.480;13.348;2022-10-16T14:49:03;1.50;;;0.90;;
7263;SDS011;3673;52.480;13.348;2022-10-16T14:51:42;1.85;;;0.80;;
7263;SDS011;3673;52.480;13.348;2022-10-16T14:54:10;1.40;;;0.70;;
7263;SDS011;3673;52.480;13.348;2022-10-16T14:56:43;1.13;;;0.77;;
7263;SDS011;3673;52.480;13.348;2022-10-16T14:59:17;2.83;;;0.90;;
7263;SDS011;3673;52.480;13.348;2022-10-16T15:01:49;3.97;;;1.48;;
7263;SDS011;3673;52.480;13.348;2022-10-16T15:04:16;1.45;;;0.45;;
7263;SDS011;3673;52.480;13.348;2022-10-16T15:06:43;1.55;;;1.20;;
7263;SDS011;3673;52.480;13.348;2022-10-16T15:09:10;2.67;;;0.77;;
7263;SDS011;3673;52.480;13.348;2022-10-16T15:11:37;1.38;;;0.88;;
7263;SDS011;3673;52.480;13.348;2022-10-16T15:14:05;1.92;;;1.00;;
7263;SDS011;3673;52.480;13.348;2022-10-16T15:16:32;1.20;;;0.98;;
7263;SDS011;3673;52.480;13.348;2022-10-16T15:19:00;1.75;;;1.10;;
7263;SDS011;3673;52.480;13.348;2022-10-16T15:21:28;3.88;;;1.15;;
7263;SDS011;3673;52.480;13.348;2022-10-16T15:23:57;1.48;;;0.93;;
7263;SDS011;3673;52.480;13.348;2022-10-16T15:26:26;3.78;;;1.13;;
7263;SDS011;3673;52.480;13.348;2022-10-16T15:28:54;2.05;;;1.00;;
7263;SDS011;3673;52.480;13.348;2022-10-16T15:31:21;0.70;;;0.70;;
7263;SDS011;3673;52.480;13.348;2022-10-16T15:33:49;1.75;;;0.98;;
7263;SDS011;3673;52.480;13.348;2022-10-16T15:36:25;1.52;;;0.95;;
7263;SDS011;3673;52.480;13.348;2022-10-16T15:38:53;3.13;;;1.20;;